Time;durP1;ratioP1;P1;durP2;ratioP2;P2;SDS_P1;SDS_P2;PMS_P1;PMS_P2;Temp;Humidity;BMP_temperature;BMP_pressure;BME280_temperature;BME280_humidity;BME280_pressure;Samples;Min_cycle;Max_cycle;Signal;HPM_P1;HPM_P2
2021/03/19 00:01:39;;;;;;;1.20;0.80;;;17.90;53.10;;;;;;4864250;29;20547;-72
2021/03/19 00:04:05;;;;;;;1.10;0.75;;;17.80;53.10;;;;;;4900526;29;20176;-65
2021/03/19 00:06:31;;;;;;;1.48;0.70;;;17.80;53.20;;;;;;4868680;29;20640;-70
2021/03/19 00:08:57;;;;;;;1.80;0.90;;;17.80;53.20;;;;;;4883833;29;20221;-71
2021/03/19 00:11:22;;;;;;;1.67;1.05;;;17.80;53.10;;;;;;4900816;29;20685;-71
2021/03/19 00:13:48;;;;;;;0.98;0.90;;;17.80;53.10;;;;;;4883965;29;20208;-66
2021/03/19 00:16:13;;;;;;;1.55;0.80;;;17.80;53.20;;;;;;4900403;29;20208;-65
2021/03/19 00:18:39;;;;;;;1.20;0.60;;;17.70;53.10;;;;;;4900578;29;20228;-66
2021/03/19 00:21:05;;;;;;;2.63;0.80;;;17.70;53.10;;;;;;4868574;29;20176;-72
2021/03/19 00:23:31;;;;;;;1.80;0.80;;;17.70;53.10;;;;;;4883218;29;20534;-65
2021/03/19 00:25:56;;;;;;;1.60;0.63;;;17.70;53.70;;;;;;4883952;29;20567;-72
2021/03/19 00:28:22;;;;;;;1.08;0.60;;;17.70;53.10;;;;;;4900487;29;20191;-64
2021/03/19 00:30:48;;;;;;;1.42;0.80;;;17.70;53.10;;;;;;4900097;29;20177;-68
2021/03/19 00:33:13;;;;;;;1.70;1.00;;;17.70;53.10;;;;;;4883796;29;20216;-72
2021/03/19 00:35:39;;;;;;;1.10;0.80;;;17.70;53.00;;;;;;4868055;29;20255;-66
2021/03/19 00:38:05;;;;;;;0.75;0.75;;;17.60;53.00;;;;;;4867666;29;20176;-71
2021/03/19 00:40:31;;;;;;;1.13;0.80;;;17.60;53.00;;;;;;4868178;29;20237;-70
2021/03/19 00:42:57;;;;;;;0.95;0.73;;;17.60;53.00;;;;;;4883776;29;20184;-71
2021/03/19 00:45:23;;;;;;;0.93;0.77;;;17.60;53.10;;;;;;4882746;29;20599;-71
2021/03/19 00:47:49;;;;;;;1.42;0.80;;;17.60;53.00;;;;;;4883600;29;20239;-65
2021/03/19 00:50:16;;;;;;;1.15;0.82;;;17.60;53.00;;;;;;4900322;29;20540;-70
2021/03/19 00:52:42;;;;;;;0.73;0.73;;;17.60;53.00;;;;;;4882905;29;20227;-66
2021/03/19 00:55:08;;;;;;;1.98;0.80;;;17.50;53.00;;;;;;4900008;29;20220;-66
2021/03/19 00:57:34;;;;;;;1.20;0.88;;;17.50;53.00;;;;;;4882603;29;20230;-68
2021/03/19 01:00:00;;;;;;;1.23;0.60;;;17.50;53.00;;;;;;4900052;29;20176;-65
2021/03/19 01:02:25;;;;;;;0.47;0.47;;;17.50;53.00;;;;;;4882999;29;20683;-71
2021/03/19 01:04:52;;;;;;;1.02;0.63;;;17.50;53.00;;;;;;4867181;29;20172;-66
2021/03/19 01:07:18;;;;;;;1.13;0.60;;;17.50;53.00;;;;;;4883352;29;20177;-70
2021/03/19 01:09:43;;;;;;;1.88;0.80;;;17.50;53.00;;;;;;4900019;29;20181;-70
2021/03/19 01:12:09;;;;;;;0.60;0.60;;;17.40;52.90;;;;;;4867139;29;20212;-66
2021/03/19 01:14:35;;;;;;;1.33;0.73;;;17.40;52.90;;;;;;4898446;29;20617;-67
2021/03/19 01:17:00;;;;;;;1.50;0.63;;;17.40;52.90;;;;;;4883041;29;20214;-70
2021/03/19 01:19:26;;;;;;;0.93;0.80;;;17.40;52.90;;;;;;4882257;29;20173;-71
2021/03/19 01:21:51;;;;;;;1.23;0.90;;;17.40;52.90;;;;;;4899701;29;20719;-71
2021/03/19 01:24:17;;;;;;;1.25;0.93;;;17.40;52.90;;;;;;4899652;29;20177;-65
2021/03/19 01:26:42;;;;;;;1.67;1.35;;;17.40;52.90;;;;;;4899000;29;20184;-65
2021/03/19 01:29:08;;;;;;;0.95;0.70;;;17.30;52.80;;;;;;4882777;29;20172;-71
2021/03/19 01:31:34;;;;;;;0.65;0.65;;;17.40;52.80;;;;;;4882492;29;20260;-65
2021/03/19 01:34:00;;;;;;;1.27;0.90;;;17.30;53.40;;;;;;4898692;29;20203;-69
2021/03/19 01:36:26;;;;;;;1.20;1.02;;;17.40;52.90;;;;;;4867137;29;20173;-67
2021/03/19 01:38:51;;;;;;;0.70;0.57;;;17.30;52.80;;;;;;4899398;29;20191;-69
2021/03/19 01:41:17;;;;;;;0.93;0.82;;;17.30;52.80;;;;;;4882122;29;20211;-65
2021/03/19 01:44:03;;;;;;;1.67;0.60;;;17.30;52.80;;;;;;4899125;29;20654;-65
2021/03/19 01:47:17;;;;;;;1.30;0.60;;;17.30;52.90;;;;;;4898998;29;20712;-69
2021/03/19 01:50:20;;;;;;;1.10;0.80;;;17.30;52.80;;;;;;4832028;29;20195;-64
2021/03/19 01:53:23;;;;;;;1.35;0.73;;;17.30;52.80;;;;;;4899184;29;20698;-65
2021/03/19 01:56:26;;;;;;;0.80;0.65;;;17.20;52.70;;;;;;4898645;29;20193;-65
2021/03/19 01:59:29;;;;;;;0.70;0.52;;;17.20;52.70;;;;;;4899129;29;20187;-71
2021/03/19 02:02:31;;;;;;;1.05;0.95;;;17.20;52.70;;;;;;4898568;29;20180;-71
2021/03/19 02:05:34;;;;;;;0.73;0.73;;;17.20;52.80;;;;;;4898872;29;20180;-67
2021/03/19 02:08:37;;;;;;;0.98;0.70;;;17.20;52.70;;;;;;4898343;29;20251;-67
2021/03/19 02:11:40;;;;;;;1.33;0.70;;;17.20;52.70;;;;;;4898721;29;20190;-69
2021/03/19 02:14:43;;;;;;;0.70;0.70;;;17.10;52.70;;;;;;4898714;29;20211;-66
2021/03/19 02:17:46;;;;;;;0.95;0.70;;;17.10;52.70;;;;;;4898750;29;20176;-73
2021/03/19 02:20:49;;;;;;;1.02;0.70;;;17.10;52.60;;;;;;4898662;29;20212;-72
2021/03/19 02:23:52;;;;;;;0.95;0.80;;;17.10;52.70;;;;;;4898023;29;20181;-65
2021/03/19 02:26:55;;;;;;;1.42;0.70;;;17.10;52.60;;;;;;4898443;29;20189;-65
2021/03/19 02:29:58;;;;;;;0.60;0.60;;;17.10;52.60;;;;;;4897839;29;20222;-71
2021/03/19 02:32:24;;;;;;;0.90;0.82;;;17.10;52.70;;;;;;4898220;29;20267;-70
2021/03/19 02:35:17;;;;;;;0.50;0.50;;;17.10;52.60;;;;;;4881613;29;20655;-66
2021/03/19 02:37:43;;;;;;;0.75;0.75;;;17.00;52.60;;;;;;4863842;29;20203;-65
2021/03/19 02:40:15;;;;;;;1.00;0.90;;;17.00;52.60;;;;;;4898401;29;20185;-70
2021/03/19 02:42:40;;;;;;;1.25;0.82;;;17.00;52.60;;;;;;4898164;29;20216;-65
2021/03/19 02:45:08;;;;;;;1.05;0.95;;;17.10;52.60;;;;;;4880879;29;20203;-70
2021/03/19 02:47:34;;;;;;;1.60;0.90;;;17.00;52.60;;;;;;4897954;29;20663;-65
2021/03/19 02:49:59;;;;;;;0.80;0.80;;;17.00;52.60;;;;;;4897622;29;20180;-65
2021/03/19 02:52:25;;;;;;;0.95;0.82;;;17.00;52.60;;;;;;4897820;29;20740;-72
2021/03/19 02:54:52;;;;;;;0.73;0.60;;;17.00;52.60;;;;;;4896622;29;20223;-65
2021/03/19 02:57:17;;;;;;;2.47;0.88;;;17.00;52.60;;;;;;4880680;29;20181;-67
2021/03/19 02:59:43;;;;;;;0.80;0.80;;;17.00;52.60;;;;;;4865737;29;20260;-67
2021/03/19 03:02:08;;;;;;;0.85;0.80;;;17.00;52.60;;;;;;4881196;29;20375;-70
2021/03/19 03:04:34;;;;;;;2.20;1.08;;;16.90;52.50;;;;;;4880344;29;20652;-71
2021/03/19 03:07:00;;;;;;;0.90;0.90;;;16.90;53.20;;;;;;4897974;29;20184;-66
2021/03/19 03:09:28;;;;;;;1.23;0.82;;;16.90;52.40;;;;;;4865580;29;20176;-67
2021/03/19 03:11:54;;;;;;;1.30;0.95;;;16.90;52.50;;;;;;4897248;29;20211;-71
2021/03/19 03:14:21;;;;;;;0.77;0.77;;;16.90;52.40;;;;;;4865423;29;20184;-68
2021/03/19 03:16:47;;;;;;;0.90;0.80;;;16.90;52.40;;;;;;4881263;29;20184;-70
2021/03/19 03:19:15;;;;;;;0.80;0.80;;;16.90;52.40;;;;;;4880563;29;20181;-66
2021/03/19 03:21:41;;;;;;;0.85;0.70;;;16.90;52.40;;;;;;4880941;29;20197;-66
2021/03/19 03:24:07;;;;;;;0.65;0.60;;;16.90;52.40;;;;;;4850122;29;20180;-72
2021/03/19 03:26:33;;;;;;;1.05;0.95;;;16.90;52.40;;;;;;4864867;29;20189;-64
2021/03/19 03:28:58;;;;;;;1.15;0.57;;;16.80;52.30;;;;;;4897768;29;20183;-65
2021/03/19 03:31:24;;;;;;;0.68;0.68;;;16.80;52.30;;;;;;4897467;29;20200;-69
2021/03/19 03:33:50;;;;;;;1.58;0.90;;;16.80;52.40;;;;;;4880110;29;20184;-66
2021/03/19 03:36:16;;;;;;;2.10;0.75;;;16.80;52.40;;;;;;4897681;29;20255;-69
2021/03/19 03:38:41;;;;;;;1.10;1.00;;;16.80;52.40;;;;;;4879933;29;20205;-69
2021/03/19 03:41:12;;;;;;;0.63;0.60;;;16.80;52.40;;;;;;4880161;29;20801;-69
2021/03/19 03:43:38;;;;;;;0.63;0.63;;;16.80;52.40;;;;;;4865505;29;20279;-65
2021/03/19 03:46:05;;;;;;;1.02;0.52;;;16.80;52.40;;;;;;4880872;29;20251;-65
2021/03/19 03:48:31;;;;;;;1.10;1.00;;;16.80;52.40;;;;;;4880044;29;20636;-71
2021/03/19 03:50:57;;;;;;;1.55;1.17;;;16.70;52.40;;;;;;4897602;29;20172;-72
2021/03/19 03:53:23;;;;;;;1.05;0.90;;;16.70;52.40;;;;;;4864286;29;20641;-65
2021/03/19 03:55:48;;;;;;;1.42;0.60;;;16.70;53.00;;;;;;4880562;29;20173;-70
2021/03/19 03:58:14;;;;;;;1.73;0.88;;;16.70;52.30;;;;;;4880822;29;20553;-71
2021/03/19 04:00:40;;;;;;;0.80;0.80;;;16.70;52.30;;;;;;4879949;29;20173;-72
2021/03/19 04:03:06;;;;;;;0.85;0.73;;;16.70;52.30;;;;;;4864928;29;20224;-67
2021/03/19 04:05:37;;;;;;;1.10;0.80;;;16.70;52.30;;;;;;4897019;29;20554;-70
2021/03/19 04:08:03;;;;;;;1.08;0.80;;;16.70;52.30;;;;;;4880230;29;20169;-68
2021/03/19 04:10:28;;;;;;;0.75;0.75;;;16.70;52.30;;;;;;4865015;29;20704;-71
2021/03/19 04:12:54;;;;;;;1.50;0.85;;;16.70;52.30;;;;;;4880585;29;20340;-66
2021/03/19 04:15:20;;;;;;;1.33;0.88;;;16.70;52.30;;;;;;4864309;29;20176;-72
2021/03/19 04:17:46;;;;;;;0.80;0.70;;;16.60;52.30;;;;;;4880410;29;20556;-66
2021/03/19 04:20:12;;;;;;;1.05;0.88;;;16.60;52.30;;;;;;4865221;29;20260;-65
2021/03/19 04:22:39;;;;;;;1.27;0.60;;;16.60;52.30;;;;;;4864205;29;20724;-72
2021/03/19 04:25:05;;;;;;;0.77;0.77;;;16.60;52.20;;;;;;4880559;29;20172;-71
2021/03/19 04:27:41;;;;;;;1.35;1.08;;;16.60;52.30;;;;;;4864819;29;20187;-72
2021/03/19 04:30:07;;;;;;;1.27;0.90;;;16.60;52.20;;;;;;4865630;29;20987;-70
2021/03/19 04:32:33;;;;;;;1.10;0.88;;;16.60;52.20;;;;;;4896749;29;20276;-71
2021/03/19 04:34:59;;;;;;;0.77;0.77;;;16.60;52.20;;;;;;4896906;29;20252;-71
2021/03/19 04:37:24;;;;;;;0.70;0.60;;;16.60;52.30;;;;;;4896416;29;20196;-66
2021/03/19 04:39:50;;;;;;;0.70;0.70;;;16.50;52.20;;;;;;4849574;29;20173;-69
2021/03/19 04:42:15;;;;;;;0.80;0.60;;;16.60;52.20;;;;;;4864770;29;20180;-70
2021/03/19 04:44:45;;;;;;;0.70;0.70;;;16.60;52.20;;;;;;4864065;29;20180;-65
2021/03/19 04:47:11;;;;;;;1.30;0.77;;;16.50;52.20;;;;;;4849403;29;20183;-66
2021/03/19 04:49:37;;;;;;;0.70;0.70;;;16.60;52.20;;;;;;4881780;29;20629;-72
2021/03/19 04:52:03;;;;;;;0.60;0.60;;;16.50;52.20;;;;;;4852715;29;20233;-65
2021/03/19 04:54:29;;;;;;;0.70;0.70;;;16.50;52.20;;;;;;4899817;29;20280;-65
2021/03/19 04:56:55;;;;;;;1.00;0.82;;;16.50;52.20;;;;;;4867558;29;20637;-69
2021/03/19 04:59:20;;;;;;;0.73;0.65;;;16.50;52.80;;;;;;4883260;29;20172;-72
2021/03/19 05:01:50;;;;;;;0.68;0.68;;;16.50;52.20;;;;;;4867970;29;20184;-69
2021/03/19 05:04:16;;;;;;;0.73;0.73;;;16.50;52.20;;;;;;4883242;29;20651;-70
2021/03/19 05:06:42;;;;;;;0.73;0.68;;;16.40;52.80;;;;;;4867827;29;20191;-67
2021/03/19 05:09:07;;;;;;;1.40;0.70;;;16.50;52.20;;;;;;4883208;29;20562;-70
2021/03/19 05:11:34;;;;;;;0.80;0.80;;;16.50;52.30;;;;;;4882182;29;20259;-66
2021/03/19 05:14:00;;;;;;;0.77;0.52;;;16.40;52.10;;;;;;4883123;29;20173;-66
2021/03/19 05:16:25;;;;;;;0.90;0.65;;;16.40;52.20;;;;;;4899742;29;20180;-65
2021/03/19 05:18:51;;;;;;;1.17;1.08;;;16.40;52.20;;;;;;4899129;29;20335;-72
2021/03/19 05:21:17;;;;;;;0.68;0.68;;;16.40;52.20;;;;;;4899911;29;20199;-72
2021/03/19 05:23:42;;;;;;;0.60;0.60;;;16.40;52.20;;;;;;4899446;29;20252;-65
2021/03/19 05:26:08;;;;;;;0.60;0.60;;;16.40;52.20;;;;;;4899023;29;20176;-71
2021/03/19 05:28:34;;;;;;;0.80;0.80;;;16.40;52.20;;;;;;4867362;29;20185;-65
2021/03/19 05:31:00;;;;;;;1.08;0.85;;;16.40;52.20;;;;;;4882835;29;20177;-70
2021/03/19 05:33:28;;;;;;;0.73;0.73;;;16.30;52.20;;;;;;4881900;29;20315;-71
2021/03/19 05:35:54;;;;;;;0.73;0.60;;;16.30;52.20;;;;;;4867281;29;20617;-69
2021/03/19 05:38:20;;;;;;;1.00;0.80;;;16.30;52.10;;;;;;4867201;29;20184;-65
2021/03/19 05:40:52;;;;;;;0.85;0.63;;;16.30;52.10;;;;;;4882191;29;20169;-67
2021/03/19 05:43:21;;;;;;;0.80;0.80;;;16.30;52.10;;;;;;4867225;29;20176;-71
2021/03/19 05:46:00;;;;;;;0.70;0.70;;;16.30;52.20;;;;;;4898809;29;20173;-64
2021/03/19 05:48:31;;;;;;;0.65;0.60;;;16.30;52.20;;;;;;4882681;29;20204;-63
2021/03/19 05:50:56;;;;;;;1.10;0.90;;;16.30;52.80;;;;;;4852130;29;20180;-72
2021/03/19 05:53:38;;;;;;;1.05;0.85;;;16.30;52.20;;;;;;4898024;29;20690;-71
2021/03/19 05:56:15;;;;;;;0.68;0.68;;;16.30;52.20;;;;;;4853445;29;20265;-71
2021/03/19 05:58:41;;;;;;;0.80;0.80;;;16.30;52.20;;;;;;4883134;29;20204;-71
2021/03/19 06:01:07;;;;;;;0.65;0.65;;;16.30;52.30;;;;;;4865691;29;20176;-72
2021/03/19 06:03:32;;;;;;;0.82;0.57;;;16.20;52.20;;;;;;4882039;29;20240;-67
2021/03/19 06:06:06;;;;;;;0.80;0.80;;;16.20;52.20;;;;;;4882173;29;20637;-69
2021/03/19 06:08:45;;;;;;;0.63;0.63;;;16.20;52.20;;;;;;4865986;29;20181;-71
2021/03/19 06:11:22;;;;;;;0.52;0.52;;;16.30;52.30;;;;;;4866497;29;20632;-72
2021/03/19 06:14:13;;;;;;;0.60;0.60;;;16.40;52.50;;;;;;4883483;29;20212;-69
2021/03/19 06:16:46;;;;;;;0.70;0.70;;;16.60;52.40;;;;;;4881844;29;20176;-66
2021/03/19 06:19:32;;;;;;;0.60;0.50;;;16.80;52.20;;;;;;4867026;29;20268;-67
2021/03/19 06:22:24;;;;;;;1.15;0.57;;;17.10;51.80;;;;;;4881290;29;20187;-72
2021/03/19 06:25:23;;;;;;;0.95;0.60;;;17.40;51.40;;;;;;4881921;29;20183;-71
2021/03/19 06:27:57;;;;;;;0.73;0.73;;;17.80;50.70;;;;;;4877172;29;20188;-70
2021/03/19 06:30:30;;;;;;;0.60;0.60;;;18.20;49.90;;;;;;4866155;29;20649;-69
2021/03/19 06:33:02;;;;;;;0.70;0.70;;;18.40;49.50;;;;;;4881772;29;20568;-71
2021/03/19 06:35:33;;;;;;;0.98;0.60;;;18.50;49.10;;;;;;4881279;29;20177;-71
2021/03/19 06:38:27;;;;;;;0.63;0.60;;;18.60;48.90;;;;;;4882499;29;20255;-67
2021/03/19 06:40:53;;;;;;;1.20;0.63;;;18.80;48.80;;;;;;4898400;29;20169;-69
2021/03/19 06:43:25;;;;;;;0.60;0.60;;;18.80;48.80;;;;;;4897477;29;20235;-66
2021/03/19 06:46:06;;;;;;;0.60;0.60;;;18.80;49.30;;;;;;4850947;29;20191;-65
2021/03/19 06:48:41;;;;;;;0.55;0.50;;;18.80;48.70;;;;;;4865806;29;20528;-68
2021/03/19 06:51:25;;;;;;;0.68;0.68;;;18.80;48.90;;;;;;4865912;29;20183;-71
2021/03/19 06:54:32;;;;;;;0.50;0.50;;;18.70;49.50;;;;;;4897835;29;20224;-68
2021/03/19 06:57:11;;;;;;;0.65;0.60;;;18.70;49.60;;;;;;4858255;29;20182;-72
2021/03/19 06:59:50;;;;;;;0.50;0.50;;;18.70;49.20;;;;;;4876439;29;20188;-69
2021/03/19 07:02:41;;;;;;;0.40;0.40;;;18.70;49.20;;;;;;4881443;29;20239;-66
2021/03/19 07:05:58;;;;;;;0.60;0.50;;;18.70;49.20;;;;;;4897281;29;20179;-71
2021/03/19 07:08:33;;;;;;;0.55;0.55;;;18.70;49.20;;;;;;4876913;29;20188;-66
2021/03/19 07:11:01;;;;;;;0.60;0.60;;;18.70;49.20;;;;;;4881283;29;20247;-69
2021/03/19 07:13:36;;;;;;;0.65;0.50;;;18.80;49.20;;;;;;4896744;29;20208;-66
2021/03/19 07:16:15;;;;;;;0.50;0.50;;;18.70;49.20;;;;;;4880983;29;20188;-68
2021/03/19 07:18:52;;;;;;;0.60;0.60;;;18.70;49.30;;;;;;4864740;29;20180;-73
2021/03/19 07:21:28;;;;;;;0.50;0.50;;;18.60;49.40;;;;;;4851255;29;20184;-65
2021/03/19 07:24:19;;;;;;;0.73;0.63;;;18.50;49.60;;;;;;4880958;29;20255;-65
2021/03/19 07:27:02;;;;;;;1.15;0.50;;;18.40;49.70;;;;;;4897657;29;20176;-65
2021/03/19 07:29:49;;;;;;;0.73;0.60;;;18.40;49.80;;;;;;4865470;29;20413;-65
2021/03/19 07:32:23;;;;;;;1.27;0.95;;;18.40;49.80;;;;;;4880307;29;20262;-70
2021/03/19 07:34:54;;;;;;;2.03;0.95;;;18.30;49.20;;;;;;4881275;29;20223;-60
2021/03/19 07:37:23;;;;;;;1.00;0.95;;;18.30;48.70;;;;;;4865514;29;20211;-61
2021/03/19 07:39:58;;;;;;;1.98;1.00;;;18.30;48.60;;;;;;4896710;29;20180;-62
2021/03/19 07:42:49;;;;;;;1.10;0.90;;;18.30;48.60;;;;;;4880857;29;20226;-61
2021/03/19 07:45:33;;;;;;;1.13;0.95;;;18.30;48.40;;;;;;4897374;29;20267;-61
2021/03/19 07:48:16;;;;;;;5.90;1.45;;;18.30;48.10;;;;;;4897370;29;20228;-60
2021/03/19 07:51:03;;;;;;;1.52;1.05;;;18.20;48.00;;;;;;4865657;29;20538;-64
2021/03/19 07:53:41;;;;;;;3.72;1.10;;;18.10;47.80;;;;;;4882177;29;20223;-68
2021/03/19 07:56:25;;;;;;;2.05;1.45;;;18.10;47.80;;;;;;4880603;29;20191;-61
2021/03/19 07:58:56;;;;;;;4.18;1.05;;;18.10;47.70;;;;;;4880674;29;20255;-61
2021/03/19 08:01:46;;;;;;;2.20;1.13;;;18.10;47.50;;;;;;4879891;29;20625;-61
2021/03/19 08:04:37;;;;;;;2.90;1.48;;;18.00;47.30;;;;;;4883064;29;20256;-61
2021/03/19 08:07:31;;;;;;;2.33;1.40;;;18.10;47.30;;;;;;4865503;29;20204;-62
2021/03/19 08:10:24;;;;;;;2.03;1.20;;;18.20;46.60;;;;;;4880470;29;20233;-73
2021/03/19 08:13:04;;;;;;;1.65;1.08;;;18.30;46.90;;;;;;4897029;29;20667;-70
2021/03/19 08:15:29;;;;;;;3.97;1.20;;;18.30;46.90;;;;;;4879626;29;20644;-68
2021/03/19 08:18:13;;;;;;;2.42;1.00;;;18.30;47.30;;;;;;4897097;29;20180;-70
2021/03/19 08:20:48;;;;;;;3.10;0.95;;;18.30;47.40;;;;;;4896245;29;20180;-75
2021/03/19 08:23:17;;;;;;;1.10;0.93;;;18.30;47.70;;;;;;4865820;29;20180;-64
2021/03/19 08:25:48;;;;;;;1.25;0.90;;;18.30;48.00;;;;;;4883582;29;20297;-67
2021/03/19 08:28:17;;;;;;;1.33;0.70;;;18.30;48.10;;;;;;4868061;29;20168;-63
2021/03/19 08:30:49;;;;;;;3.10;1.15;;;18.30;48.20;;;;;;4873676;29;20238;-63
2021/03/19 08:33:26;;;;;;;2.25;1.33;;;18.40;48.50;;;;;;4865928;29;20236;-64
2021/03/19 08:35:58;;;;;;;1.40;0.90;;;18.40;48.60;;;;;;4861672;29;20173;-64
2021/03/19 08:38:36;;;;;;;1.45;0.90;;;18.50;48.70;;;;;;4861868;29;20182;-62
2021/03/19 08:41:22;;;;;;;1.50;0.80;;;18.50;48.70;;;;;;4846544;29;20319;-63
2021/03/19 08:43:48;;;;;;;1.58;0.90;;;18.50;48.80;;;;;;4861335;29;20315;-67
2021/03/19 08:46:24;;;;;;;1.67;1.00;;;18.50;48.90;;;;;;4863138;29;20273;-63
2021/03/19 08:48:59;;;;;;;3.35;0.70;;;18.50;49.00;;;;;;4861386;29;20174;-77
2021/03/19 08:51:27;;;;;;;0.95;0.90;;;18.50;48.90;;;;;;4846311;29;20240;-63
2021/03/19 08:54:12;;;;;;;1.95;1.10;;;18.40;49.10;;;;;;4848655;29;20233;-61
2021/03/19 08:56:58;;;;;;;1.08;0.95;;;18.40;49.40;;;;;;4860941;29;20188;-61
2021/03/19 08:59:29;;;;;;;1.92;0.80;;;18.40;49.10;;;;;;4857004;29;20230;-62
2021/03/19 09:01:56;;;;;;;0.98;0.80;;;18.40;48.80;;;;;;4886525;29;20181;-67
2021/03/19 09:04:53;;;;;;;3.50;1.02;;;18.40;48.70;;;;;;4898913;29;20179;-70
2021/03/19 09:07:26;;;;;;;1.00;0.70;;;18.40;48.50;;;;;;4885932;29;20220;-61
2021/03/19 09:09:53;;;;;;;1.83;0.70;;;18.50;48.60;;;;;;4879620;29;20521;-61
2021/03/19 09:12:24;;;;;;;1.58;0.95;;;18.40;48.50;;;;;;4864576;29;20240;-60
2021/03/19 09:14:52;;;;;;;1.75;1.00;;;18.40;48.50;;;;;;4864460;29;20181;-68
2021/03/19 09:17:44;;;;;;;1.73;0.80;;;18.40;48.60;;;;;;4879778;29;20158;-60
2021/03/19 09:20:30;;;;;;;1.63;0.88;;;18.40;48.70;;;;;;4880950;29;20265;-61
2021/03/19 09:23:10;;;;;;;1.73;0.95;;;18.40;48.70;;;;;;4881094;29;20181;-74
2021/03/19 09:25:49;;;;;;;1.10;0.75;;;18.40;48.80;;;;;;4878756;29;20240;-61
2021/03/19 09:28:40;;;;;;;1.83;0.95;;;18.40;48.90;;;;;;4879857;29;20184;-60
2021/03/19 09:31:30;;;;;;;0.60;0.60;;;18.40;48.80;;;;;;4858094;29;20916;-61
2021/03/19 09:34:02;;;;;;;1.38;1.00;;;18.40;48.80;;;;;;4861105;29;20201;-61
2021/03/19 09:37:03;;;;;;;2.08;0.93;;;18.40;48.80;;;;;;4860133;29;20175;-61
2021/03/19 09:39:52;;;;;;;0.70;0.70;;;18.40;48.80;;;;;;4861445;29;20249;-60
2021/03/19 09:42:18;;;;;;;0.90;0.68;;;18.40;48.90;;;;;;4861008;29;20269;-61
2021/03/19 09:45:00;;;;;;;0.80;0.80;;;18.50;49.00;;;;;;4862081;29;20717;-60
2021/03/19 09:47:31;;;;;;;1.42;1.00;;;18.40;48.90;;;;;;4860591;29;20217;-60
2021/03/19 09:50:07;;;;;;;0.75;0.75;;;18.50;49.00;;;;;;4860821;29;20169;-59
2021/03/19 09:52:32;;;;;;;0.60;0.60;;;18.50;49.10;;;;;;4861241;29;20607;-60
2021/03/19 09:54:58;;;;;;;1.92;1.08;;;18.50;49.10;;;;;;4875409;29;20221;-61
2021/03/19 09:57:29;;;;;;;1.15;0.80;;;18.50;49.70;;;;;;4880148;29;20193;-60
2021/03/19 10:00:07;;;;;;;0.57;0.57;;;18.40;49.20;;;;;;4863089;29;20256;-60
2021/03/19 10:02:39;;;;;;;1.50;0.90;;;18.40;49.20;;;;;;4879029;29;20184;-60
2021/03/19 10:05:11;;;;;;;0.95;0.88;;;18.40;49.20;;;;;;4879119;29;20177;-62
2021/03/19 10:07:38;;;;;;;0.88;0.88;;;18.30;49.40;;;;;;4897516;29;20184;-62
2021/03/19 10:10:04;;;;;;;0.60;0.60;;;18.40;49.40;;;;;;4866971;29;20177;-60
2021/03/19 10:12:33;;;;;;;2.10;0.80;;;18.40;49.30;;;;;;4898443;29;20815;-60
2021/03/19 10:15:12;;;;;;;0.82;0.55;;;18.40;49.30;;;;;;4881367;29;20172;-61
2021/03/19 10:17:38;;;;;;;0.75;0.75;;;18.40;49.30;;;;;;4866280;29;20554;-60
2021/03/19 10:20:12;;;;;;;0.80;0.73;;;18.50;49.30;;;;;;4898082;29;20181;-59
2021/03/19 10:22:46;;;;;;;0.70;0.70;;;18.40;49.30;;;;;;4897196;29;20271;-60
2021/03/19 10:25:16;;;;;;;1.25;0.70;;;18.40;49.30;;;;;;4866190;29;20215;-59
2021/03/19 10:27:46;;;;;;;0.80;0.80;;;18.40;49.30;;;;;;4897877;29;20629;-72
2021/03/19 10:30:32;;;;;;;0.68;0.68;;;18.30;49.60;;;;;;4881918;29;20172;-60
2021/03/19 10:33:06;;;;;;;1.13;0.70;;;18.30;49.60;;;;;;4881658;29;20200;-60
2021/03/19 10:35:35;;;;;;;1.17;1.08;;;18.40;49.60;;;;;;4881607;29;20179;-62
2021/03/19 10:38:07;;;;;;;1.52;0.90;;;18.40;49.50;;;;;;4881677;29;20173;-60
2021/03/19 10:40:38;;;;;;;1.00;0.70;;;18.40;49.50;;;;;;4882004;29;20168;-60
2021/03/19 10:43:19;;;;;;;0.85;0.70;;;18.40;49.50;;;;;;4881280;29;20189;-60
2021/03/19 10:46:03;;;;;;;1.10;0.77;;;18.40;49.40;;;;;;4881522;29;20632;-60
2021/03/19 10:48:57;;;;;;;0.65;0.60;;;18.50;49.50;;;;;;4885899;29;20187;-68
2021/03/19 10:51:25;;;;;;;0.65;0.63;;;18.50;49.40;;;;;;4882986;29;20333;-58
2021/03/19 10:54:10;;;;;;;1.92;1.10;;;18.50;49.50;;;;;;4897824;29;20645;-72
2021/03/19 10:57:00;;;;;;;1.73;0.95;;;18.50;49.60;;;;;;4881319;29;20174;-60
2021/03/19 10:59:29;;;;;;;0.60;0.60;;;18.60;49.60;;;;;;4883882;29;20208;-75
2021/03/19 11:01:55;;;;;;;2.67;0.70;;;18.60;49.70;;;;;;4898090;29;20168;-70
2021/03/19 11:04:30;;;;;;;1.48;1.00;;;18.60;49.70;;;;;;4880324;29;20184;-61
2021/03/19 11:06:55;;;;;;;1.00;0.73;;;18.60;49.70;;;;;;4865659;29;20548;-71
2021/03/19 11:09:23;;;;;;;0.85;0.70;;;18.60;49.70;;;;;;4895691;29;20180;-62
2021/03/19 11:11:57;;;;;;;0.75;0.75;;;18.60;49.70;;;;;;4896591;29;20212;-60
2021/03/19 11:14:27;;;;;;;1.58;0.77;;;18.60;49.70;;;;;;4896168;29;20173;-66
2021/03/19 11:16:54;;;;;;;0.80;0.80;;;18.50;50.50;;;;;;4880408;29;20670;-61
2021/03/19 11:19:25;;;;;;;0.65;0.65;;;18.50;49.90;;;;;;4896219;29;20308;-60
2021/03/19 11:22:03;;;;;;;0.88;0.60;;;18.40;49.80;;;;;;4896291;29;20652;-60
2021/03/19 11:24:39;;;;;;;0.80;0.80;;;18.40;50.00;;;;;;4895554;29;20173;-63
2021/03/19 11:27:07;;;;;;;1.35;0.80;;;18.40;49.80;;;;;;4880824;29;20164;-67
2021/03/19 11:29:34;;;;;;;1.02;0.88;;;18.40;50.30;;;;;;4897437;29;20704;-60
2021/03/19 11:32:13;;;;;;;1.15;0.80;;;18.50;49.60;;;;;;4895692;29;20573;-60
2021/03/19 11:34:40;;;;;;;1.60;0.93;;;18.40;49.60;;;;;;4911718;29;20295;-61
2021/03/19 11:37:31;;;;;;;2.35;1.00;;;18.40;50.00;;;;;;4896225;29;20176;-62
2021/03/19 11:40:15;;;;;;;0.55;0.47;;;18.50;49.80;;;;;;4896266;29;20172;-68
2021/03/19 11:42:46;;;;;;;2.38;0.80;;;18.50;49.70;;;;;;4880383;29;20171;-61
2021/03/19 11:45:16;;;;;;;1.10;0.70;;;18.50;49.70;;;;;;4880008;29;20713;-61
2021/03/19 11:47:45;;;;;;;1.05;0.82;;;18.60;49.70;;;;;;4896514;29;20549;-60
2021/03/19 11:50:20;;;;;;;1.42;0.98;;;18.60;49.70;;;;;;4896025;29;20173;-61
2021/03/19 11:52:46;;;;;;;0.65;0.60;;;18.70;49.80;;;;;;4896770;29;20251;-71
2021/03/19 11:55:17;;;;;;;1.73;0.60;;;18.70;49.70;;;;;;4890943;29;20270;-61
2021/03/19 11:57:43;;;;;;;0.55;0.55;;;18.70;49.80;;;;;;4896027;29;20618;-61
2021/03/19 12:00:09;;;;;;;0.85;0.50;;;18.80;49.80;;;;;;4914641;29;20255;-61
2021/03/19 12:02:37;;;;;;;1.40;0.73;;;18.80;49.80;;;;;;4915353;29;20184;-62
2021/03/19 12:05:04;;;;;;;1.00;0.75;;;18.80;49.80;;;;;;4899844;29;20192;-63
2021/03/19 12:07:30;;;;;;;2.75;1.20;;;18.80;50.40;;;;;;4914501;29;20188;-63
2021/03/19 12:09:55;;;;;;;1.95;0.68;;;18.80;49.20;;;;;;4884085;29;20182;-62
2021/03/19 12:12:23;;;;;;;2.17;1.00;;;18.80;49.00;;;;;;4900097;29;20259;-62
2021/03/19 12:14:49;;;;;;;0.70;0.55;;;18.70;48.80;;;;;;4900258;29;20320;-62
2021/03/19 12:17:15;;;;;;;1.45;0.98;;;18.70;48.80;;;;;;4900991;29;20252;-63
2021/03/19 12:19:41;;;;;;;1.85;0.75;;;18.60;48.70;;;;;;4883497;29;20636;-63
2021/03/19 12:22:06;;;;;;;1.85;0.93;;;18.70;48.70;;;;;;4900804;29;20197;-63
2021/03/19 12:24:33;;;;;;;1.60;0.50;;;18.70;48.50;;;;;;4883784;29;20188;-61
2021/03/19 12:26:59;;;;;;;2.30;0.90;;;18.70;48.40;;;;;;4883341;29;20177;-61
2021/03/19 12:29:24;;;;;;;1.35;0.50;;;18.70;48.30;;;;;;4900352;29;20259;-69
2021/03/19 12:31:50;;;;;;;1.15;0.70;;;18.70;48.30;;;;;;4883752;29;20208;-61
2021/03/19 12:34:15;;;;;;;0.93;0.60;;;18.70;48.30;;;;;;4883440;29;20180;-60
2021/03/19 12:36:41;;;;;;;0.40;0.40;;;18.70;48.20;;;;;;4891251;29;20184;-63
2021/03/19 12:39:07;;;;;;;1.30;0.90;;;18.70;48.10;;;;;;4883794;29;20263;-62
2021/03/19 12:41:32;;;;;;;0.57;0.57;;;18.70;48.70;;;;;;4867514;29;20248;-62
2021/03/19 12:43:58;;;;;;;0.73;0.73;;;18.70;48.00;;;;;;4883476;29;20656;-67
2021/03/19 12:46:23;;;;;;;0.63;0.63;;;18.60;48.00;;;;;;4900165;29;20223;-61
2021/03/19 12:48:49;;;;;;;0.70;0.70;;;18.70;48.00;;;;;;4899731;29;20180;-60
2021/03/19 12:51:15;;;;;;;0.57;0.57;;;18.70;48.00;;;;;;4868077;29;20275;-61
2021/03/19 12:53:40;;;;;;;0.98;0.60;;;18.70;47.90;;;;;;4882991;29;20216;-62
2021/03/19 12:56:06;;;;;;;1.40;0.75;;;18.70;47.60;;;;;;4866102;29;20204;-61
2021/03/19 12:58:32;;;;;;;1.45;0.98;;;18.70;46.50;;;;;;4864687;29;20178;-64
2021/03/19 13:00:58;;;;;;;1.65;0.75;;;18.70;45.50;;;;;;4864936;29;20182;-69
2021/03/19 13:03:25;;;;;;;0.40;0.40;;;18.70;45.50;;;;;;4864064;29;20538;-63
2021/03/19 13:05:51;;;;;;;1.23;0.68;;;18.70;45.70;;;;;;4866097;29;20173;-68
2021/03/19 13:08:17;;;;;;;1.15;0.70;;;18.70;45.60;;;;;;4864806;29;20177;-65
2021/03/19 13:10:42;;;;;;;1.45;0.70;;;18.80;45.70;;;;;;4880391;29;20549;-62
2021/03/19 13:13:08;;;;;;;0.55;0.55;;;18.80;45.50;;;;;;4881076;29;20324;-65
2021/03/19 13:15:34;;;;;;;2.33;0.60;;;18.80;44.90;;;;;;4864095;29;20173;-59
2021/03/19 13:18:00;;;;;;;0.80;0.70;;;18.70;43.40;;;;;;4880314;29;20177;-61